sensor_id;sensor_type;location;lat;lon;timestamp;temperature;humidity
11389;DHT22;5750;48.474;8.952;2022-10-31T00:01:50;10.20;99.90
11389;DHT22;5750;48.474;8.952;2022-10-31T00:04:17;10.20;99.90
11389;DHT22;5750;48.474;8.952;2022-10-31T00:06:43;10.10;99.90
11389;DHT22;5750;48.474;8.952;2022-10-31T00:09:10;10.10;99.90
11389;DHT22;5750;48.474;8.952;2022-10-31T00:11:37;10.00;99.90
11389;DHT22;5750;48.474;8.952;2022-10-31T00:14:05;9.90;99.90
11389;DHT22;5750;48.474;8.952;2022-10-31T00:16:31;9.80;99.90
11389;DHT22;5750;48.474;8.952;2022-10-31T00:18:58;9.70;99.90
11389;DHT22;5750;48.474;8.952;2022-10-31T00:21:25;9.70;99.90
11389;DHT22;5750;48.474;8.952;2022-10-31T00:23:52;9.70;99.90
11389;DHT22;5750;48.474;8.952;2022-10-31T00:26:19;9.70;99.90
11389;DHT22;5750;48.474;8.952;2022-10-31T00:28:45;9.70;99.90
11389;DHT22;5750;48.474;8.952;2022-10-31T00:31:13;9.60;99.90
11389;DHT22;5750;48.474;8.952;2022-10-31T00:33:40;9.60;99.90
11389;DHT22;5750;48.474;8.952;2022-10-31T00:36:07;9.60;99.90
11389;DHT22;5750;48.474;8.952;2022-10-31T00:38:36;9.60;99.90
11389;DHT22;5750;48.474;8.952;2022-10-31T00:41:03;9.60;99.90
11389;DHT22;5750;48.474;8.952;2022-10-31T00:43:29;9.60;99.90
11389;DHT22;5750;48.474;8.952;2022-10-31T00:45:56;9.60;99.90
11389;DHT22;5750;48.474;8.952;2022-10-31T00:48:24;9.60;99.90
11389;DHT22;5750;48.474;8.952;2022-10-31T00:50:50;9.50;99.90
11389;DHT22;5750;48.474;8.952;2022-10-31T00:53:17;9.60;99.90
11389;DHT22;5750;48.474;8.952;2022-10-31T00:55:43;9.50;99.90
11389;DHT22;5750;48.474;8.952;2022-10-31T00:58:10;9.50;99.90
11389;DHT22;5750;48.474;8.952;2022-10-31T01:00:36;9.50;99.90
11389;DHT22;5750;48.474;8.952;2022-10-31T01:03:03;9.50;99.90
11389;DHT22;5750;48.474;8.952;2022-10-31T01:05:31;9.50;99.90
11389;DHT22;5750;48.474;8.952;2022-10-31T01:07:58;9.50;99.90
11389;DHT22;5750;48.474;8.952;2022-10-31T01:10:24;9.50;99.90
11389;DHT22;5750;48.474;8.952;2022-10-31T01:12:51;9.40;99.90
11389;DHT22;5750;48.474;8.952;2022-10-31T01:15:18;9.50;99.90
11389;DHT22;5750;48.474;8.952;2022-10-31T01:17:44;9.50;99.90
11389;DHT22;5750;48.474;8.952;2022-10-31T01:20:11;9.50;99.90
11389;DHT22;5750;48.474;8.952;2022-10-31T01:22:40;9.50;99.90
11389;DHT22;5750;48.474;8.952;2022-10-31T01:25:07;9.50;99.90
11389;DHT22;5750;48.474;8.952;2022-10-31T01:27:34;9.40;99.90
11389;DHT22;5750;48.474;8.952;2022-10-31T01:30:00;9.40;99.90
11389;DHT22;5750;48.474;8.952;2022-10-31T01:32:27;9.40;99.90
11389;DHT22;5750;48.474;8.952;2022-10-31T01:37:20;9.40;99.90
11389;DHT22;5750;48.474;8.952;2022-10-31T01:39:48;9.40;99.90
11389;DHT22;5750;48.474;8.952;2022-10-31T01:42:16;9.30;99.90
11389;DHT22;5750;48.474;8.952;2022-10-31T01:44:48;9.30;99.90
11389;DHT22;5750;48.474;8.952;2022-10-31T01:47:17;9.20;99.90
11389;DHT22;5750;48.474;8.952;2022-10-31T01:49:46;9.20;99.90
11389;DHT22;5750;48.474;8.952;2022-10-31T01:52:13;9.20;99.90
11389;DHT22;5750;48.474;8.952;2022-10-31T01:54:42;9.20;99.90
11389;DHT22;5750;48.474;8.952;2022-10-31T01:57:13;9.20;99.90
11389;DHT22;5750;48.474;8.952;2022-10-31T01:59:42;9.20;99.90
11389;DHT22;5750;48.474;8.952;2022-10-31T02:02:09;9.20;99.90
11389;DHT22;5750;48.474;8.952;2022-10-31T02:04:36;9.20;99.90
11389;DHT22;5750;48.474;8.952;2022-10-31T02:07:03;9.20;99.90
11389;DHT22;5750;48.474;8.952;2022-10-31T02:09:31;9.20;99.90
11389;DHT22;5750;48.474;8.952;2022-10-31T02:11:58;9.20;99.90
11389;DHT22;5750;48.474;8.952;2022-10-31T02:14:27;9.20;99.90
11389;DHT22;5750;48.474;8.952;2022-10-31T02:16:55;9.10;99.90
11389;DHT22;5750;48.474;8.952;2022-10-31T02:19:23;9.10;99.90
11389;DHT22;5750;48.474;8.952;2022-10-31T02:21:55;9.10;99.90
11389;DHT22;5750;48.474;8.952;2022-10-31T02:24:41;9.10;99.90
11389;DHT22;5750;48.474;8.952;2022-10-31T02:27:11;9.00;99.90
11389;DHT22;5750;48.474;8.952;2022-10-31T02:29:56;9.10;99.90
11389;DHT22;5750;48.474;8.952;2022-10-31T02:32:31;9.10;99.90
11389;DHT22;5750;48.474;8.952;2022-10-31T02:35:03;9.10;99.90
11389;DHT22;5750;48.474;8.952;2022-10-31T02:37:36;9.00;99.90
11389;DHT22;5750;48.474;8.952;2022-10-31T02:40:05;9.00;99.90
11389;DHT22;5750;48.474;8.952;2022-10-31T02:42:38;9.00;99.90
11389;DHT22;5750;48.474;8.952;2022-10-31T02:45:07;9.00;99.90
11389;DHT22;5750;48.474;8.952;2022-10-31T02:47:36;9.00;99.90
11389;DHT22;5750;48.474;8.952;2022-10-31T02:50:04;9.00;99.90
11389;DHT22;5750;48.474;8.952;2022-10-31T02:52:32;8.90;99.90
11389;DHT22;5750;48.474;8.952;2022-10-31T02:55:08;8.90;99.90
11389;DHT22;5750;48.474;8.952;2022-10-31T02:57:35;8.90;99.90
11389;DHT22;5750;48.474;8.952;2022-10-31T03:00:02;8.80;99.90
11389;DHT22;5750;48.474;8.952;2022-10-31T03:02:40;8.90;99.90
11389;DHT22;5750;48.474;8.952;2022-10-31T03:05:23;8.80;99.90
11389;DHT22;5750;48.474;8.952;2022-10-31T03:07:53;8.80;99.90
11389;DHT22;5750;48.474;8.952;2022-10-31T03:10:24;8.80;99.90
11389;DHT22;5750;48.474;8.952;2022-10-31T03:12:55;8.80;99.90
11389;DHT22;5750;48.474;8.952;2022-10-31T03:15:25;8.80;99.90
11389;DHT22;5750;48.474;8.952;2022-10-31T03:17:56;8.70;99.90
11389;DHT22;5750;48.474;8.952;2022-10-31T03:20:24;8.70;99.90
11389;DHT22;5750;48.474;8.952;2022-10-31T03:22:52;8.70;99.90
11389;DHT22;5750;48.474;8.952;2022-10-31T03:25:20;8.60;99.90
11389;DHT22;5750;48.474;8.952;2022-10-31T03:27:46;8.60;99.90
11389;DHT22;5750;48.474;8.952;2022-10-31T03:30:14;8.50;99.90
11389;DHT22;5750;48.474;8.952;2022-10-31T03:32:42;8.50;99.90
11389;DHT22;5750;48.474;8.952;2022-10-31T03:35:12;8.50;99.90
11389;DHT22;5750;48.474;8.952;2022-10-31T03:37:39;8.50;99.90
11389;DHT22;5750;48.474;8.952;2022-10-31T03:42:34;8.50;99.90
11389;DHT22;5750;48.474;8.952;2022-10-31T03:45:04;8.50;99.90
11389;DHT22;5750;48.474;8.952;2022-10-31T03:47:32;8.40;99.90
11389;DHT22;5750;48.474;8.952;2022-10-31T03:49:59;8.40;99.90
11389;DHT22;5750;48.474;8.952;2022-10-31T03:52:27;8.40;99.90
11389;DHT22;5750;48.474;8.952;2022-10-31T03:54:56;8.50;99.90
11389;DHT22;5750;48.474;8.952;2022-10-31T03:57:24;8.50;99.90
11389;DHT22;5750;48.474;8.952;2022-10-31T03:59:52;8.50;99.90
11389;DHT22;5750;48.474;8.952;2022-10-31T04:02:20;8.50;99.90
11389;DHT22;5750;48.474;8.952;2022-10-31T04:04:48;8.50;99.90
11389;DHT22;5750;48.474;8.952;2022-10-31T04:07:15;8.50;99.90
11389;DHT22;5750;48.474;8.952;2022-10-31T04:09:44;8.40;99.90
11389;DHT22;5750;48.474;8.952;2022-10-31T04:12:12;8.40;99.90
11389;DHT22;5750;48.474;8.952;2022-10-31T04:14:41;8.40;99.90
11389;DHT22;5750;48.474;8.952;2022-10-31T04:17:09;8.40;99.90
11389;DHT22;5750;48.474;8.952;2022-10-31T04:19:37;8.40;99.90
11389;DHT22;5750;48.474;8.952;2022-10-31T04:22:04;8.40;99.90
11389;DHT22;5750;48.474;8.952;2022-10-31T04:24:30;8.40;99.90
11389;DHT22;5750;48.474;8.952;2022-10-31T04:26:58;8.40;99.90
11389;DHT22;5750;48.474;8.952;2022-10-31T04:29:25;8.30;99.90
11389;DHT22;5750;48.474;8.952;2022-10-31T04:31:51;8.20;99.90
11389;DHT22;5750;48.474;8.952;2022-10-31T04:34:18;8.20;99.90
11389;DHT22;5750;48.474;8.952;2022-10-31T04:36:44;8.20;99.90
11389;DHT22;5750;48.474;8.952;2022-10-31T04:39:11;8.30;99.90
11389;DHT22;5750;48.474;8.952;2022-10-31T04:41:37;8.20;99.90
11389;DHT22;5750;48.474;8.952;2022-10-31T04:44:05;8.10;99.90
11389;DHT22;5750;48.474;8.952;2022-10-31T04:46:32;8.10;99.90
11389;DHT22;5750;48.474;8.952;2022-10-31T04:48:58;8.10;99.90
11389;DHT22;5750;48.474;8.952;2022-10-31T04:51:25;8.10;99.90
11389;DHT22;5750;48.474;8.952;2022-10-31T04:53:51;8.10;99.90
11389;DHT22;5750;48.474;8.952;2022-10-31T04:56:18;8.10;99.90
11389;DHT22;5750;48.474;8.952;2022-10-31T04:58:45;8.00;99.90
11389;DHT22;5750;48.474;8.952;2022-10-31T05:01:13;8.00;99.90
11389;DHT22;5750;48.474;8.952;2022-10-31T05:03:39;8.00;99.90
11389;DHT22;5750;48.474;8.952;2022-10-31T05:06:06;8.00;99.90
11389;DHT22;5750;48.474;8.952;2022-10-31T05:08:32;8.00;99.90
11389;DHT22;5750;48.474;8.952;2022-10-31T05:10:59;8.00;99.90
11389;DHT22;5750;48.474;8.952;2022-10-31T05:13:26;8.00;99.90
11389;DHT22;5750;48.474;8.952;2022-10-31T05:15:52;8.00;99.90
11389;DHT22;5750;48.474;8.952;2022-10-31T05:18:20;8.00;99.90
11389;DHT22;5750;48.474;8.952;2022-10-31T05:20:47;8.00;99.90
11389;DHT22;5750;48.474;8.952;2022-10-31T05:23:13;8.00;99.90
11389;DHT22;5750;48.474;8.952;2022-10-31T05:25:40;7.90;99.90
11389;DHT22;5750;48.474;8.952;2022-10-31T05:28:07;7.90;99.90
11389;DHT22;5750;48.474;8.952;2022-10-31T05:30:33;7.90;99.90
11389;DHT22;5750;48.474;8.952;2022-10-31T05:33:00;7.90;99.90
11389;DHT22;5750;48.474;8.952;2022-10-31T05:35:29;8.00;99.90
11389;DHT22;5750;48.474;8.952;2022-10-31T05:37:56;7.90;99.90
11389;DHT22;5750;48.474;8.952;2022-10-31T05:40:23;7.90;99.90
11389;DHT22;5750;48.474;8.952;2022-10-31T05:42:50;7.80;99.90
11389;DHT22;5750;48.474;8.952;2022-10-31T05:45:17;7.70;99.90
11389;DHT22;5750;48.474;8.952;2022-10-31T05:47:49;7.70;99.90
11389;DHT22;5750;48.474;8.952;2022-10-31T05:50:16;7.70;99.90
11389;DHT22;5750;48.474;8.952;2022-10-31T05:52:44;7.70;99.90
11389;DHT22;5750;48.474;8.952;2022-10-31T05:55:10;7.70;99.90
11389;DHT22;5750;48.474;8.952;2022-10-31T05:57:37;7.60;99.90
11389;DHT22;5750;48.474;8.952;2022-10-31T06:00:04;7.70;99.90
11389;DHT22;5750;48.474;8.952;2022-10-31T06:02:31;7.60;99.90
11389;DHT22;5750;48.474;8.952;2022-10-31T06:04:59;7.60;99.90
11389;DHT22;5750;48.474;8.952;2022-10-31T06:07:26;7.60;99.90
11389;DHT22;5750;48.474;8.952;2022-10-31T06:09:54;7.60;99.90
11389;DHT22;5750;48.474;8.952;2022-10-31T06:12:21;7.60;99.90
11389;DHT22;5750;48.474;8.952;2022-10-31T06:14:47;7.70;99.90
11389;DHT22;5750;48.474;8.952;2022-10-31T06:17:14;7.80;99.90
11389;DHT22;5750;48.474;8.952;2022-10-31T06:19:40;7.80;99.90
11389;DHT22;5750;48.474;8.952;2022-10-31T06:22:07;7.90;99.90
11389;DHT22;5750;48.474;8.952;2022-10-31T06:24:33;7.90;99.90
11389;DHT22;5750;48.474;8.952;2022-10-31T06:27:01;7.90;99.90
11389;DHT22;5750;48.474;8.952;2022-10-31T06:29:28;8.00;99.90
11389;DHT22;5750;48.474;8.952;2022-10-31T06:31:54;8.10;99.90
11389;DHT22;5750;48.474;8.952;2022-10-31T06:34:21;8.10;99.90
11389;DHT22;5750;48.474;8.952;2022-10-31T06:36:47;8.20;99.90
11389;DHT22;5750;48.474;8.952;2022-10-31T06:39:14;8.20;99.90
11389;DHT22;5750;48.474;8.952;2022-10-31T06:41:41;8.30;99.90
11389;DHT22;5750;48.474;8.952;2022-10-31T06:44:09;8.40;99.90
11389;DHT22;5750;48.474;8.952;2022-10-31T06:46:35;8.30;99.90
11389;DHT22;5750;48.474;8.952;2022-10-31T06:49:02;8.30;99.90
11389;DHT22;5750;48.474;8.952;2022-10-31T06:51:28;8.40;99.90
11389;DHT22;5750;48.474;8.952;2022-10-31T06:53:55;8.40;99.90
11389;DHT22;5750;48.474;8.952;2022-10-31T06:56:21;8.50;99.90
11389;DHT22;5750;48.474;8.952;2022-10-31T06:58:48;8.50;99.90
11389;DHT22;5750;48.474;8.952;2022-10-31T07:01:16;8.60;99.90
11389;DHT22;5750;48.474;8.952;2022-10-31T07:03:42;8.60;99.90
11389;DHT22;5750;48.474;8.952;2022-10-31T07:06:09;8.70;99.90
11389;DHT22;5750;48.474;8.952;2022-10-31T07:08:35;8.70;99.90
11389;DHT22;5750;48.474;8.952;2022-10-31T07:11:02;8.70;99.90
11389;DHT22;5750;48.474;8.952;2022-10-31T07:13:28;8.70;99.90
11389;DHT22;5750;48.474;8.952;2022-10-31T07:15:59;8.80;99.90
11389;DHT22;5750;48.474;8.952;2022-10-31T07:18:27;8.90;99.90
11389;DHT22;5750;48.474;8.952;2022-10-31T07:20:53;8.90;99.90
11389;DHT22;5750;48.474;8.952;2022-10-31T07:23:20;8.90;99.90
11389;DHT22;5750;48.474;8.952;2022-10-31T07:25:47;8.90;99.90
11389;DHT22;5750;48.474;8.952;2022-10-31T07:28:14;8.90;99.90
11389;DHT22;5750;48.474;8.952;2022-10-31T07:30:40;8.90;99.90
11389;DHT22;5750;48.474;8.952;2022-10-31T07:33:07;8.90;99.90
11389;DHT22;5750;48.474;8.952;2022-10-31T07:35:35;9.10;99.90
11389;DHT22;5750;48.474;8.952;2022-10-31T07:38:08;9.10;99.90
11389;DHT22;5750;48.474;8.952;2022-10-31T07:40:35;9.20;99.90
11389;DHT22;5750;48.474;8.952;2022-10-31T07:43:01;9.30;99.90
11389;DHT22;5750;48.474;8.952;2022-10-31T07:45:28;9.40;99.90
11389;DHT22;5750;48.474;8.952;2022-10-31T07:47:55;9.40;99.90
11389;DHT22;5750;48.474;8.952;2022-10-31T07:50:22;9.40;99.90
11389;DHT22;5750;48.474;8.952;2022-10-31T07:52:58;9.50;99.90
11389;DHT22;5750;48.474;8.952;2022-10-31T07:55:25;9.60;99.90
11389;DHT22;5750;48.474;8.952;2022-10-31T07:57:55;9.80;99.90
11389;DHT22;5750;48.474;8.952;2022-10-31T08:00:21;9.90;99.90
11389;DHT22;5750;48.474;8.952;2022-10-31T08:02:48;10.10;99.90
11389;DHT22;5750;48.474;8.952;2022-10-31T08:05:14;10.30;99.90
11389;DHT22;5750;48.474;8.952;2022-10-31T08:07:41;10.40;99.90
11389;DHT22;5750;48.474;8.952;2022-10-31T08:10:09;10.50;99.90
11389;DHT22;5750;48.474;8.952;2022-10-31T08:12:36;10.60;99.90
11389;DHT22;5750;48.474;8.952;2022-10-31T08:15:02;10.80;99.90
11389;DHT22;5750;48.474;8.952;2022-10-31T08:17:29;10.90;99.90
11389;DHT22;5750;48.474;8.952;2022-10-31T08:19:55;11.10;99.90
11389;DHT22;5750;48.474;8.952;2022-10-31T08:22:22;11.20;99.90
11389;DHT22;5750;48.474;8.952;2022-10-31T08:24:49;11.30;99.90
11389;DHT22;5750;48.474;8.952;2022-10-31T08:27:16;11.30;99.90
11389;DHT22;5750;48.474;8.952;2022-10-31T08:29:43;11.40;99.90
11389;DHT22;5750;48.474;8.952;2022-10-31T08:32:10;11.50;99.90
11389;DHT22;5750;48.474;8.952;2022-10-31T08:34:36;11.60;99.90
11389;DHT22;5750;48.474;8.952;2022-10-31T08:37:03;11.70;99.90
11389;DHT22;5750;48.474;8.952;2022-10-31T08:39:29;11.80;99.90
11389;DHT22;5750;48.474;8.952;2022-10-31T08:41:56;11.90;99.90
11389;DHT22;5750;48.474;8.952;2022-10-31T08:44:24;11.90;99.90
11389;DHT22;5750;48.474;8.952;2022-10-31T08:46:50;12.00;99.90
11389;DHT22;5750;48.474;8.952;2022-10-31T08:49:17;11.90;99.90
11389;DHT22;5750;48.474;8.952;2022-10-31T08:51:46;12.00;99.90
11389;DHT22;5750;48.474;8.952;2022-10-31T08:54:13;12.10;99.90
11389;DHT22;5750;48.474;8.952;2022-10-31T08:56:39;12.20;99.90
11389;DHT22;5750;48.474;8.952;2022-10-31T08:59:06;12.20;99.90
11389;DHT22;5750;48.474;8.952;2022-10-31T09:01:34;12.20;99.90
11389;DHT22;5750;48.474;8.952;2022-10-31T09:04:00;12.30;99.90
11389;DHT22;5750;48.474;8.952;2022-10-31T09:06:27;12.40;99.90
11389;DHT22;5750;48.474;8.952;2022-10-31T09:08:53;12.50;99.90
11389;DHT22;5750;48.474;8.952;2022-10-31T09:13:47;12.70;99.90
11389;DHT22;5750;48.474;8.952;2022-10-31T09:16:13;12.80;99.90
11389;DHT22;5750;48.474;8.952;2022-10-31T09:18:41;13.00;99.90
11389;DHT22;5750;48.474;8.952;2022-10-31T09:21:08;13.10;99.90
11389;DHT22;5750;48.474;8.952;2022-10-31T09:23:34;13.20;99.90
11389;DHT22;5750;48.474;8.952;2022-10-31T09:26:01;13.30;99.90
11389;DHT22;5750;48.474;8.952;2022-10-31T09:28:28;13.30;99.90
11389;DHT22;5750;48.474;8.952;2022-10-31T09:30:55;13.40;99.90
11389;DHT22;5750;48.474;8.952;2022-10-31T09:33:22;13.50;99.90
11389;DHT22;5750;48.474;8.952;2022-10-31T09:35:49;13.70;99.90
11389;DHT22;5750;48.474;8.952;2022-10-31T09:38:17;13.80;99.90
11389;DHT22;5750;48.474;8.952;2022-10-31T09:40:46;13.90;99.90
11389;DHT22;5750;48.474;8.952;2022-10-31T09:43:14;14.00;99.90
11389;DHT22;5750;48.474;8.952;2022-10-31T09:45:44;14.10;99.90
11389;DHT22;5750;48.474;8.952;2022-10-31T09:48:16;14.10;99.90
11389;DHT22;5750;48.474;8.952;2022-10-31T09:50:46;14.10;99.90
11389;DHT22;5750;48.474;8.952;2022-10-31T09:53:17;14.00;99.90
11389;DHT22;5750;48.474;8.952;2022-10-31T09:55:47;14.00;99.90
11389;DHT22;5750;48.474;8.952;2022-10-31T09:58:16;13.90;99.90
11389;DHT22;5750;48.474;8.952;2022-10-31T10:00:43;13.90;99.90
11389;DHT22;5750;48.474;8.952;2022-10-31T10:03:11;14.00;99.90
11389;DHT22;5750;48.474;8.952;2022-10-31T10:05:41;14.10;99.90
11389;DHT22;5750;48.474;8.952;2022-10-31T10:08:11;14.30;99.90
11389;DHT22;5750;48.474;8.952;2022-10-31T10:10:43;14.50;99.90
11389;DHT22;5750;48.474;8.952;2022-10-31T10:13:16;14.60;99.90
11389;DHT22;5750;48.474;8.952;2022-10-31T10:15:50;14.70;99.90
11389;DHT22;5750;48.474;8.952;2022-10-31T10:18:22;14.90;99.90
11389;DHT22;5750;48.474;8.952;2022-10-31T10:20:56;15.00;99.90
11389;DHT22;5750;48.474;8.952;2022-10-31T10:23:28;15.20;99.90
11389;DHT22;5750;48.474;8.952;2022-10-31T10:26:03;15.30;99.90
11389;DHT22;5750;48.474;8.952;2022-10-31T10:28:32;15.50;99.90
11389;DHT22;5750;48.474;8.952;2022-10-31T10:31:04;15.60;99.90
11389;DHT22;5750;48.474;8.952;2022-10-31T10:33:32;15.70;99.90
11389;DHT22;5750;48.474;8.952;2022-10-31T10:36:00;15.80;99.90
11389;DHT22;5750;48.474;8.952;2022-10-31T10:38:29;16.00;99.90
11389;DHT22;5750;48.474;8.952;2022-10-31T10:40:56;16.30;99.90
11389;DHT22;5750;48.474;8.952;2022-10-31T10:43:26;16.30;99.90
11389;DHT22;5750;48.474;8.952;2022-10-31T10:45:59;16.50;99.90
11389;DHT22;5750;48.474;8.952;2022-10-31T10:48:45;16.60;99.90
11389;DHT22;5750;48.474;8.952;2022-10-31T10:51:20;16.80;99.90
11389;DHT22;5750;48.474;8.952;2022-10-31T10:53:49;16.90;99.90
11389;DHT22;5750;48.474;8.952;2022-10-31T10:56:30;17.10;99.90
11389;DHT22;5750;48.474;8.952;2022-10-31T10:59:02;17.10;99.90
11389;DHT22;5750;48.474;8.952;2022-10-31T11:01:29;17.10;99.90
11389;DHT22;5750;48.474;8.952;2022-10-31T11:03:56;17.10;99.90
11389;DHT22;5750;48.474;8.952;2022-10-31T11:06:23;17.00;99.90
11389;DHT22;5750;48.474;8.952;2022-10-31T11:08:51;17.10;99.90
11389;DHT22;5750;48.474;8.952;2022-10-31T11:11:25;17.10;99.90
11389;DHT22;5750;48.474;8.952;2022-10-31T11:13:55;17.20;99.90
11389;DHT22;5750;48.474;8.952;2022-10-31T11:16:33;17.30;99.90
11389;DHT22;5750;48.474;8.952;2022-10-31T11:19:13;17.30;99.90
11389;DHT22;5750;48.474;8.952;2022-10-31T11:21:41;17.40;99.90
11389;DHT22;5750;48.474;8.952;2022-10-31T11:24:12;17.60;99.90
11389;DHT22;5750;48.474;8.952;2022-10-31T11:26:40;17.50;99.90
11389;DHT22;5750;48.474;8.952;2022-10-31T11:29:11;17.60;99.90
11389;DHT22;5750;48.474;8.952;2022-10-31T11:31:40;17.60;99.90
11389;DHT22;5750;48.474;8.952;2022-10-31T11:34:11;17.60;99.90
11389;DHT22;5750;48.474;8.952;2022-10-31T11:36:39;17.70;99.90
11389;DHT22;5750;48.474;8.952;2022-10-31T11:39:13;17.60;99.90
11389;DHT22;5750;48.474;8.952;2022-10-31T11:41:41;17.70;99.90
11389;DHT22;5750;48.474;8.952;2022-10-31T11:44:10;17.70;99.90
11389;DHT22;5750;48.474;8.952;2022-10-31T11:46:40;17.80;99.90
11389;DHT22;5750;48.474;8.952;2022-10-31T11:49:11;17.90;99.90
11389;DHT22;5750;48.474;8.952;2022-10-31T11:51:40;18.00;99.90
11389;DHT22;5750;48.474;8.952;2022-10-31T11:54:15;18.20;99.90
11389;DHT22;5750;48.474;8.952;2022-10-31T11:56:44;18.30;99.90
11389;DHT22;5750;48.474;8.952;2022-10-31T12:02:00;18.30;99.90
11389;DHT22;5750;48.474;8.952;2022-10-31T12:04:32;18.30;99.90
11389;DHT22;5750;48.474;8.952;2022-10-31T12:07:00;18.40;99.90
11389;DHT22;5750;48.474;8.952;2022-10-31T12:09:27;18.10;99.90
11389;DHT22;5750;48.474;8.952;2022-10-31T12:14:42;18.20;99.90
11389;DHT22;5750;48.474;8.952;2022-10-31T12:17:13;18.20;99.90
11389;DHT22;5750;48.474;8.952;2022-10-31T12:19:42;18.10;99.90
11389;DHT22;5750;48.474;8.952;2022-10-31T12:22:13;18.10;99.90
11389;DHT22;5750;48.474;8.952;2022-10-31T12:24:44;18.00;99.90
11389;DHT22;5750;48.474;8.952;2022-10-31T12:27:17;18.00;99.90
11389;DHT22;5750;48.474;8.952;2022-10-31T12:29:52;17.80;99.90
11389;DHT22;5750;48.474;8.952;2022-10-31T12:32:27;17.80;99.90
11389;DHT22;5750;48.474;8.952;2022-10-31T12:35:02;17.70;99.90
11389;DHT22;5750;48.474;8.952;2022-10-31T12:37:36;17.70;99.90
11389;DHT22;5750;48.474;8.952;2022-10-31T12:42:56;17.60;99.90
11389;DHT22;5750;48.474;8.952;2022-10-31T12:45:29;17.50;99.90
11389;DHT22;5750;48.474;8.952;2022-10-31T12:48:10;17.50;99.90
11389;DHT22;5750;48.474;8.952;2022-10-31T12:50:47;17.40;99.90
11389;DHT22;5750;48.474;8.952;2022-10-31T12:53:19;17.50;99.90
11389;DHT22;5750;48.474;8.952;2022-10-31T12:56:00;17.50;99.90
11389;DHT22;5750;48.474;8.952;2022-10-31T12:58:30;17.60;99.90
11389;DHT22;5750;48.474;8.952;2022-10-31T13:01:06;17.60;99.90
11389;DHT22;5750;48.474;8.952;2022-10-31T13:03:38;18.30;99.90
11389;DHT22;5750;48.474;8.952;2022-10-31T13:06:09;17.70;99.90
11389;DHT22;5750;48.474;8.952;2022-10-31T13:08:40;17.70;99.90
11389;DHT22;5750;48.474;8.952;2022-10-31T13:11:08;17.80;99.90
11389;DHT22;5750;48.474;8.952;2022-10-31T13:13:37;18.00;99.90
11389;DHT22;5750;48.474;8.952;2022-10-31T13:16:09;18.10;99.90
11389;DHT22;5750;48.474;8.952;2022-10-31T13:18:39;18.20;99.90
11389;DHT22;5750;48.474;8.952;2022-10-31T13:21:08;18.30;99.90
11389;DHT22;5750;48.474;8.952;2022-10-31T13:23:36;18.40;99.90
11389;DHT22;5750;48.474;8.952;2022-10-31T13:26:06;18.50;99.90
11389;DHT22;5750;48.474;8.952;2022-10-31T13:28:35;18.60;99.90
11389;DHT22;5750;48.474;8.952;2022-10-31T13:31:02;18.50;99.90
11389;DHT22;5750;48.474;8.952;2022-10-31T13:33:29;18.90;99.90
11389;DHT22;5750;48.474;8.952;2022-10-31T13:36:03;19.10;99.90
11389;DHT22;5750;48.474;8.952;2022-10-31T13:38:33;19.40;99.90
11389;DHT22;5750;48.474;8.952;2022-10-31T13:41:01;19.70;99.90
11389;DHT22;5750;48.474;8.952;2022-10-31T13:43:31;19.90;99.90
11389;DHT22;5750;48.474;8.952;2022-10-31T13:46:00;20.20;99.90
11389;DHT22;5750;48.474;8.952;2022-10-31T13:48:37;20.40;99.90
11389;DHT22;5750;48.474;8.952;2022-10-31T13:51:06;20.50;99.90
11389;DHT22;5750;48.474;8.952;2022-10-31T13:53:37;20.70;99.90
11389;DHT22;5750;48.474;8.952;2022-10-31T13:56:05;21.00;99.90
11389;DHT22;5750;48.474;8.952;2022-10-31T13:58:37;21.10;99.90
11389;DHT22;5750;48.474;8.952;2022-10-31T14:01:12;21.20;99.90
11389;DHT22;5750;48.474;8.952;2022-10-31T14:03:40;21.20;99.90
11389;DHT22;5750;48.474;8.952;2022-10-31T14:06:08;21.10;99.90
11389;DHT22;5750;48.474;8.952;2022-10-31T14:08:36;21.00;99.90
11389;DHT22;5750;48.474;8.952;2022-10-31T14:11:04;20.90;99.90
11389;DHT22;5750;48.474;8.952;2022-10-31T14:13:34;20.80;99.90
11389;DHT22;5750;48.474;8.952;2022-10-31T14:16:03;20.70;99.90
11389;DHT22;5750;48.474;8.952;2022-10-31T14:18:31;20.50;99.90
11389;DHT22;5750;48.474;8.952;2022-10-31T14:20:58;20.30;99.90
11389;DHT22;5750;48.474;8.952;2022-10-31T14:23:38;20.20;99.90
11389;DHT22;5750;48.474;8.952;2022-10-31T14:26:30;20.00;99.90
11389;DHT22;5750;48.474;8.952;2022-10-31T14:28:58;19.80;99.90
11389;DHT22;5750;48.474;8.952;2022-10-31T14:31:29;19.60;99.90
11389;DHT22;5750;48.474;8.952;2022-10-31T14:33:57;19.50;99.90
11389;DHT22;5750;48.474;8.952;2022-10-31T14:36:25;19.40;99.90
11389;DHT22;5750;48.474;8.952;2022-10-31T14:38:56;19.30;99.90
11389;DHT22;5750;48.474;8.952;2022-10-31T14:41:33;19.20;99.90
11389;DHT22;5750;48.474;8.952;2022-10-31T14:46:54;18.60;99.90
11389;DHT22;5750;48.474;8.952;2022-10-31T14:49:25;19.10;99.90
11389;DHT22;5750;48.474;8.952;2022-10-31T14:54:23;19.00;99.90
11389;DHT22;5750;48.474;8.952;2022-10-31T14:56:52;18.80;99.90
11389;DHT22;5750;48.474;8.952;2022-10-31T14:59:20;18.70;99.90
11389;DHT22;5750;48.474;8.952;2022-10-31T15:01:52;18.60;99.90
11389;DHT22;5750;48.474;8.952;2022-10-31T15:04:21;18.50;99.90
11389;DHT22;5750;48.474;8.952;2022-10-31T15:06:49;18.30;99.90
11389;DHT22;5750;48.474;8.952;2022-10-31T15:09:20;18.10;99.90
11389;DHT22;5750;48.474;8.952;2022-10-31T15:11:48;18.00;99.90
11389;DHT22;5750;48.474;8.952;2022-10-31T15:14:22;17.90;99.90
11389;DHT22;5750;48.474;8.952;2022-10-31T15:16:49;17.70;99.90
11389;DHT22;5750;48.474;8.952;2022-10-31T15:19:17;17.60;99.90
11389;DHT22;5750;48.474;8.952;2022-10-31T15:21:46;17.50;99.90
11389;DHT22;5750;48.474;8.952;2022-10-31T15:24:13;17.40;99.90
11389;DHT22;5750;48.474;8.952;2022-10-31T15:26:43;17.30;99.90
11389;DHT22;5750;48.474;8.952;2022-10-31T15:29:13;17.20;99.90
11389;DHT22;5750;48.474;8.952;2022-10-31T15:31:48;17.10;99.90
11389;DHT22;5750;48.474;8.952;2022-10-31T15:34:16;16.90;99.90
11389;DHT22;5750;48.474;8.952;2022-10-31T15:36:43;16.80;99.90
11389;DHT22;5750;48.474;8.952;2022-10-31T15:39:13;16.80;99.90
11389;DHT22;5750;48.474;8.952;2022-10-31T15:41:42;16.70;99.90
11389;DHT22;5750;48.474;8.952;2022-10-31T15:44:14;16.70;99.90
11389;DHT22;5750;48.474;8.952;2022-10-31T15:46:41;16.70;99.90
11389;DHT22;5750;48.474;8.952;2022-10-31T15:49:12;16.70;99.90
11389;DHT22;5750;48.474;8.952;2022-10-31T15:51:42;16.60;99.90
11389;DHT22;5750;48.474;8.952;2022-10-31T15:54:10;16.60;99.90
11389;DHT22;5750;48.474;8.952;2022-10-31T15:56:38;16.50;99.90
11389;DHT22;5750;48.474;8.952;2022-10-31T15:59:05;16.50;99.90
11389;DHT22;5750;48.474;8.952;2022-10-31T16:01:33;16.40;99.90
11389;DHT22;5750;48.474;8.952;2022-10-31T16:04:01;16.30;99.90
11389;DHT22;5750;48.474;8.952;2022-10-31T16:06:28;16.20;99.90
11389;DHT22;5750;48.474;8.952;2022-10-31T16:08:55;16.10;99.90
11389;DHT22;5750;48.474;8.952;2022-10-31T16:11:23;16.00;99.90
11389;DHT22;5750;48.474;8.952;2022-10-31T16:13:54;15.90;99.90
11389;DHT22;5750;48.474;8.952;2022-10-31T16:16:21;15.80;99.90
11389;DHT22;5750;48.474;8.952;2022-10-31T16:18:49;15.70;99.90
11389;DHT22;5750;48.474;8.952;2022-10-31T16:21:22;15.70;99.90
11389;DHT22;5750;48.474;8.952;2022-10-31T16:23:53;15.50;99.90
11389;DHT22;5750;48.474;8.952;2022-10-31T16:26:21;15.40;99.90